Terminal Aerodrome Forecast
Issued by NWS Wakefield, VA

Home | Current Version | Previous Version | Text Only | Print | Product List | Glossary On
Versions: 1 2 3 4 5 6 7 8 9 10 11 12 13
000
FTUS41 KAKQ 181700
TAFRIC
TAF
KRIC 181720Z 1818/1918 13005KT P6SM BKN040 BKN080
     FM190200 08004KT P6SM BKN050
     FM191400 09007KT P6SM SCT040 BKN250=

USA.gov is the U.S. government's official web portal to all federal, state and local government web resources and services.